Accueil
METAR-TAF:

METAR-TAF

Aéroports :

Bandirma, Turquie

latitude: 40-19N, longitude: 027-58E, altitude: 51 m

Observation

Le bulletin a été fait il y a 14 heures et 25 minutes, à 09:15 UTC
Vent 10 kt de nord/nord-est
Température 23°C
Humidité 83%
Pression 1014 hPa
Visibilité 10 km ou plus
Nuages épars à une hauteur de 3500 ft
Nuages fragmentés à une hauteur de 10000 ft

METAR: LTBG 210915Z 03010KT 9999 SCT035 BKN100 23/20 Q1014 RESHRA NOSIG RMK RWY18 02006KT 350V050

Heure: 02:40 (23:40 UTC)

Prévision

Le bulletin a été fait il y a 1 heure et 0 minutes, à 22:40 UTC
Prévision valable du 22 à 00 UTC au 22 à 09 UTC
Vent 2 kt de direction variable
Visibilité 10 km ou plus
Quelques nuages à une hauteur de 3500 ft
Nuages épars à une hauteur de 10000 ft

TAF: LTBG 212240Z 2200/2209 VRB02KT 9999 FEW035 SCT100

Observations et prévisions météorologiques de plus de 4000 aéroports (messages METAR et TAF).

Les stations disponibles sont représentées par des disques jaunes et rouges sur la carte.

Passer la souris dessus pour voir le nom de la station.

Cliquer dessus pour voir les observations et prévisions météorologiques.

Pour changer de carte: cliquez sur les boutons verts avec une croix noire pour zoomer, sur le bouton vert avec un tiret pour effectuer un zoom arrière, ou sur les flèches vertes pour les cartes adjacentes.


METAR-TAF: